createdAt,value
2018-05-06T00:07:08.265Z,88.85
2018-05-06T00:16:55.281Z,85.58
2018-05-06T00:26:54.087Z,92.46
2018-05-06T00:36:49.418Z,94.31
2018-05-06T00:46:46.324Z,96.18
2018-05-06T00:56:40.465Z,95.98
2018-05-06T01:06:38.006Z,96.28
2018-05-06T01:16:26.836Z,96.17
2018-05-06T01:26:10.065Z,98.39
2018-05-06T01:35:55.249Z,96.82
2018-05-06T01:45:43.786Z,99.30
2018-05-06T01:55:31.587Z,99.14
2018-05-06T02:05:20.465Z,99.65
2018-05-06T02:15:02.994Z,99.99
2018-05-06T02:24:52.613Z,99.99
2018-05-06T02:34:38.527Z,99.99
2018-05-06T02:44:23.296Z,99.99
2018-05-06T02:54:09.689Z,99.99
2018-05-06T03:03:52.167Z,99.99
2018-05-06T03:13:43.558Z,99.99
2018-05-06T03:23:31.681Z,99.99
2018-05-06T03:33:14.718Z,99.99
2018-05-06T03:43:01.597Z,99.99
2018-05-06T03:52:46.887Z,99.99
2018-05-06T04:02:35.794Z,99.99
2018-05-06T04:12:25.122Z,99.99
2018-05-06T04:22:09.906Z,99.99
2018-05-06T04:32:04.629Z,99.99
2018-05-06T04:42:00.638Z,99.99
2018-05-06T04:51:58.731Z,99.99
2018-05-06T05:01:55.761Z,99.99
2018-05-06T05:11:46.981Z,99.99
2018-05-06T05:21:45.776Z,99.99
2018-05-06T05:31:43.631Z,99.99
2018-05-06T05:41:37.468Z,99.99
2018-05-06T05:51:36.026Z,99.86
2018-05-06T06:01:34.010Z,99.41
2018-05-06T06:11:27.367Z,97.10
2018-05-06T06:21:25.209Z,94.17
2018-05-06T06:31:01.170Z,94.13
2018-05-06T06:40:57.434Z,91.57
2018-05-06T06:50:50.978Z,91.28
2018-05-06T07:00:44.662Z,89.47
2018-05-06T07:10:39.435Z,88.23
2018-05-06T07:20:35.373Z,88.29
2018-05-06T07:30:25.935Z,85.98
2018-05-06T07:40:19.507Z,84.65
2018-05-06T07:50:11.429Z,83.95
2018-05-06T08:00:06.211Z,83.81
2018-05-06T08:10:01.966Z,82.79
2018-05-06T08:20:00.088Z,81.68
2018-05-06T08:29:52.337Z,81.45
2018-05-06T08:39:48.318Z,78.34
2018-05-06T08:49:43.747Z,79.44
2018-05-06T08:59:40.667Z,74.50
2018-05-06T09:09:36.672Z,75.49
2018-05-06T09:19:33.946Z,71.26
2018-05-06T09:29:31.261Z,69.32
2018-05-06T09:39:30.970Z,72.02
2018-05-06T09:49:31.086Z,68.63
2018-05-06T09:59:24.450Z,70.36
2018-05-06T10:09:18.268Z,68.30
2018-05-06T10:19:16.371Z,70.32
2018-05-06T10:29:14.500Z,64.75
2018-05-06T10:39:13.649Z,65.82
2018-05-06T10:49:08.555Z,63.60
2018-05-06T10:58:43.619Z,68.23
2018-05-06T11:08:25.520Z,67.70
2018-05-06T11:18:00.391Z,63.49
2018-05-06T11:27:29.694Z,66.28
2018-05-06T11:37:07.547Z,61.10
2018-05-06T11:46:45.779Z,61.35
2018-05-06T11:56:24.135Z,56.74
2018-05-06T12:06:01.927Z,61.04
2018-05-06T12:15:43.485Z,60.11
2018-05-06T12:25:13.342Z,62.58
2018-05-06T12:34:52.565Z,59.62
2018-05-06T12:44:31.817Z,56.82
2018-05-06T12:54:06.803Z,55.47
2018-05-06T13:03:32.150Z,54.57
2018-05-06T13:13:13.106Z,49.35
2018-05-06T13:22:48.538Z,49.97
2018-05-06T13:32:30.651Z,50.12
2018-05-06T13:41:58.526Z,46.15
2018-05-06T13:51:38.460Z,42.65
2018-05-06T14:01:17.670Z,42.32
2018-05-06T14:10:59.664Z,44.76
2018-05-06T14:20:32.855Z,45.16
2018-05-06T14:30:04.026Z,42.79
2018-05-06T14:39:41.971Z,41.91
2018-05-06T14:49:19.175Z,46.44
2018-05-06T14:58:56.716Z,42.96
2018-05-06T15:08:35.883Z,43.98
2018-05-06T15:18:16.127Z,44.46
2018-05-06T15:27:49.788Z,43.80
2018-05-06T15:37:16.349Z,49.14
2018-05-06T15:46:50.783Z,51.37
2018-05-06T15:56:22.478Z,55.96
2018-05-06T16:05:56.314Z,54.67
2018-05-06T16:15:31.690Z,60.52
2018-05-06T16:25:11.743Z,58.85
2018-05-06T16:34:40.328Z,66.88
2018-05-06T16:44:34.268Z,65.44
2018-05-06T16:54:11.033Z,69.76
2018-05-06T17:04:06.626Z,65.16
2018-05-06T17:14:02.986Z,69.12
2018-05-06T17:23:57.893Z,73.19
2018-05-06T17:33:54.762Z,71.96
2018-05-06T17:43:51.544Z,76.21
2018-05-06T17:53:46.648Z,76.15
2018-05-06T18:03:45.244Z,79.93
2018-05-06T18:13:37.704Z,77.00
2018-05-06T18:23:28.518Z,81.90
2018-05-06T18:33:18.715Z,80.97
2018-05-06T18:43:14.802Z,80.70
2018-05-06T18:53:10.016Z,81.85
2018-05-06T19:03:02.422Z,83.84
2018-05-06T19:12:51.075Z,82.33
2018-05-06T19:22:43.282Z,84.43
2018-05-06T19:32:38.974Z,84.77
2018-05-06T19:42:32.265Z,87.54
2018-05-06T19:52:26.323Z,88.29
2018-05-06T20:02:21.895Z,89.40
2018-05-06T20:12:16.273Z,88.88
2018-05-06T20:22:05.876Z,89.32
2018-05-06T20:31:56.600Z,89.28
2018-05-06T20:41:45.114Z,90.34
2018-05-06T20:51:35.835Z,90.34
2018-05-06T21:01:26.417Z,89.73
2018-05-06T21:11:15.660Z,89.67
2018-05-06T21:21:03.155Z,89.47
2018-05-06T21:30:52.338Z,90.53
2018-05-06T21:40:43.190Z,91.13
2018-05-06T21:50:28.817Z,92.05
2018-05-06T22:00:20.234Z,91.54
2018-05-06T22:10:09.031Z,92.09
2018-05-06T22:19:56.252Z,91.93
2018-05-06T22:29:51.737Z,93.96
2018-05-06T22:39:43.131Z,94.00
2018-05-06T22:49:30.529Z,94.51
2018-05-06T22:59:20.603Z,94.86
2018-05-06T23:09:05.401Z,94.90
2018-05-06T23:18:52.586Z,97.39
2018-05-06T23:28:39.975Z,97.29
2018-05-06T23:38:28.497Z,97.80
2018-05-06T23:48:17.007Z,97.69
2018-05-06T23:58:06.864Z,97.07
